sensor_id;sensor_type;location;lat;lon;timestamp;P1;durP1;ratioP1;P2;durP2;ratioP2
60979;SDS011;46851;49.160;8.980;2023-07-30T00:02:04;6.40;;;3.60;;
60979;SDS011;46851;49.160;8.980;2023-07-30T00:04:30;5.10;;;3.47;;
60979;SDS011;46851;49.160;8.980;2023-07-30T00:06:56;6.55;;;3.35;;
60979;SDS011;46851;49.160;8.980;2023-07-30T00:09:22;5.68;;;3.55;;
60979;SDS011;46851;49.160;8.980;2023-07-30T00:11:48;5.38;;;3.33;;
60979;SDS011;46851;49.160;8.980;2023-07-30T00:14:14;5.15;;;3.30;;
60979;SDS011;46851;49.160;8.980;2023-07-30T00:16:40;4.70;;;3.42;;
60979;SDS011;46851;49.160;8.980;2023-07-30T00:19:06;4.18;;;2.97;;
60979;SDS011;46851;49.160;8.980;2023-07-30T00:21:32;7.30;;;2.97;;
60979;SDS011;46851;49.160;8.980;2023-07-30T00:23:58;5.38;;;2.50;;
60979;SDS011;46851;49.160;8.980;2023-07-30T00:26:24;2.95;;;2.15;;
60979;SDS011;46851;49.160;8.980;2023-07-30T00:28:51;2.00;;;1.70;;
60979;SDS011;46851;49.160;8.980;2023-07-30T00:31:17;4.00;;;1.90;;
60979;SDS011;46851;49.160;8.980;2023-07-30T00:33:43;2.22;;;1.65;;
60979;SDS011;46851;49.160;8.980;2023-07-30T00:36:09;1.92;;;1.60;;
60979;SDS011;46851;49.160;8.980;2023-07-30T00:38:35;2.72;;;1.77;;
60979;SDS011;46851;49.160;8.980;2023-07-30T00:41:01;2.55;;;1.73;;
60979;SDS011;46851;49.160;8.980;2023-07-30T00:43:27;1.60;;;1.50;;
60979;SDS011;46851;49.160;8.980;2023-07-30T00:45:53;2.03;;;1.50;;
60979;SDS011;46851;49.160;8.980;2023-07-30T00:48:19;1.50;;;1.10;;
60979;SDS011;46851;49.160;8.980;2023-07-30T00:50:45;1.55;;;1.20;;
60979;SDS011;46851;49.160;8.980;2023-07-30T00:53:11;3.90;;;1.52;;
60979;SDS011;46851;49.160;8.980;2023-07-30T00:55:39;3.53;;;1.45;;
60979;SDS011;46851;49.160;8.980;2023-07-30T00:58:05;1.45;;;1.17;;
60979;SDS011;46851;49.160;8.980;2023-07-30T01:00:31;1.77;;;1.10;;
60979;SDS011;46851;49.160;8.980;2023-07-30T01:02:57;2.97;;;1.20;;
60979;SDS011;46851;49.160;8.980;2023-07-30T01:05:23;1.27;;;1.17;;
60979;SDS011;46851;49.160;8.980;2023-07-30T01:07:49;2.80;;;1.30;;
60979;SDS011;46851;49.160;8.980;2023-07-30T01:10:15;2.40;;;1.00;;
60979;SDS011;46851;49.160;8.980;2023-07-30T01:12:41;1.85;;;1.05;;
60979;SDS011;46851;49.160;8.980;2023-07-30T01:15:08;1.77;;;0.93;;
60979;SDS011;46851;49.160;8.980;2023-07-30T01:17:35;3.75;;;1.10;;
60979;SDS011;46851;49.160;8.980;2023-07-30T01:20:01;2.47;;;1.10;;
60979;SDS011;46851;49.160;8.980;2023-07-30T01:22:27;5.55;;;1.40;;
60979;SDS011;46851;49.160;8.980;2023-07-30T01:24:53;3.85;;;1.02;;
60979;SDS011;46851;49.160;8.980;2023-07-30T01:27:23;2.33;;;1.38;;
60979;SDS011;46851;49.160;8.980;2023-07-30T01:29:53;1.63;;;1.15;;
60979;SDS011;46851;49.160;8.980;2023-07-30T01:32:25;2.15;;;1.58;;
60979;SDS011;46851;49.160;8.980;2023-07-30T01:34:55;1.60;;;1.17;;
60979;SDS011;46851;49.160;8.980;2023-07-30T01:37:21;2.65;;;1.20;;
60979;SDS011;46851;49.160;8.980;2023-07-30T01:39:48;1.17;;;0.80;;
60979;SDS011;46851;49.160;8.980;2023-07-30T01:42:16;2.72;;;1.20;;
60979;SDS011;46851;49.160;8.980;2023-07-30T01:44:42;1.60;;;0.93;;
60979;SDS011;46851;49.160;8.980;2023-07-30T01:47:08;1.75;;;1.10;;
60979;SDS011;46851;49.160;8.980;2023-07-30T01:49:34;1.05;;;0.95;;
60979;SDS011;46851;49.160;8.980;2023-07-30T01:52:00;2.60;;;1.30;;
60979;SDS011;46851;49.160;8.980;2023-07-30T01:54:26;2.63;;;1.10;;
60979;SDS011;46851;49.160;8.980;2023-07-30T01:56:52;3.60;;;0.90;;
60979;SDS011;46851;49.160;8.980;2023-07-30T01:59:18;5.88;;;0.98;;
60979;SDS011;46851;49.160;8.980;2023-07-30T02:01:44;3.13;;;1.15;;
60979;SDS011;46851;49.160;8.980;2023-07-30T02:04:10;5.03;;;1.30;;
60979;SDS011;46851;49.160;8.980;2023-07-30T02:06:36;4.03;;;1.20;;
60979;SDS011;46851;49.160;8.980;2023-07-30T02:09:02;3.10;;;1.27;;
60979;SDS011;46851;49.160;8.980;2023-07-30T02:11:28;3.53;;;1.48;;
60979;SDS011;46851;49.160;8.980;2023-07-30T02:13:54;1.90;;;1.40;;
60979;SDS011;46851;49.160;8.980;2023-07-30T02:16:20;2.13;;;1.55;;
60979;SDS011;46851;49.160;8.980;2023-07-30T02:18:46;5.72;;;1.95;;
60979;SDS011;46851;49.160;8.980;2023-07-30T02:21:12;2.20;;;1.30;;
60979;SDS011;46851;49.160;8.980;2023-07-30T02:23:38;1.90;;;1.58;;
60979;SDS011;46851;49.160;8.980;2023-07-30T02:26:04;2.10;;;1.60;;
60979;SDS011;46851;49.160;8.980;2023-07-30T02:28:30;2.00;;;1.50;;
60979;SDS011;46851;49.160;8.980;2023-07-30T02:30:56;5.20;;;1.63;;
60979;SDS011;46851;49.160;8.980;2023-07-30T02:33:22;3.30;;;1.60;;
60979;SDS011;46851;49.160;8.980;2023-07-30T02:35:48;2.65;;;1.80;;
60979;SDS011;46851;49.160;8.980;2023-07-30T02:38:14;2.50;;;1.73;;
60979;SDS011;46851;49.160;8.980;2023-07-30T02:40:40;4.40;;;1.75;;
60979;SDS011;46851;49.160;8.980;2023-07-30T02:43:06;3.58;;;1.70;;
60979;SDS011;46851;49.160;8.980;2023-07-30T02:45:32;2.97;;;1.70;;
60979;SDS011;46851;49.160;8.980;2023-07-30T02:47:58;2.20;;;1.80;;
60979;SDS011;46851;49.160;8.980;2023-07-30T02:50:24;3.00;;;1.85;;
60979;SDS011;46851;49.160;8.980;2023-07-30T02:52:50;4.20;;;2.20;;
60979;SDS011;46851;49.160;8.980;2023-07-30T02:55:16;2.80;;;2.10;;
60979;SDS011;46851;49.160;8.980;2023-07-30T02:57:42;3.92;;;2.10;;
60979;SDS011;46851;49.160;8.980;2023-07-30T03:00:08;5.03;;;2.45;;
60979;SDS011;46851;49.160;8.980;2023-07-30T03:02:34;5.47;;;2.60;;
60979;SDS011;46851;49.160;8.980;2023-07-30T03:05:00;5.13;;;2.50;;
60979;SDS011;46851;49.160;8.980;2023-07-30T03:07:26;6.78;;;2.70;;
60979;SDS011;46851;49.160;8.980;2023-07-30T03:09:52;9.30;;;2.70;;
60979;SDS011;46851;49.160;8.980;2023-07-30T03:12:18;5.30;;;2.22;;
60979;SDS011;46851;49.160;8.980;2023-07-30T03:14:44;4.72;;;2.38;;
60979;SDS011;46851;49.160;8.980;2023-07-30T03:17:10;2.75;;;2.40;;
60979;SDS011;46851;49.160;8.980;2023-07-30T03:19:36;7.22;;;3.03;;
60979;SDS011;46851;49.160;8.980;2023-07-30T03:22:02;3.47;;;3.05;;
60979;SDS011;46851;49.160;8.980;2023-07-30T03:24:28;4.78;;;2.60;;
60979;SDS011;46851;49.160;8.980;2023-07-30T03:26:54;4.35;;;2.75;;
60979;SDS011;46851;49.160;8.980;2023-07-30T03:29:20;6.15;;;2.95;;
60979;SDS011;46851;49.160;8.980;2023-07-30T03:31:46;3.95;;;3.00;;
60979;SDS011;46851;49.160;8.980;2023-07-30T03:34:12;4.03;;;2.80;;
60979;SDS011;46851;49.160;8.980;2023-07-30T03:36:38;4.22;;;3.25;;
60979;SDS011;46851;49.160;8.980;2023-07-30T03:39:04;10.23;;;3.42;;
60979;SDS011;46851;49.160;8.980;2023-07-30T03:41:30;4.85;;;3.58;;
60979;SDS011;46851;49.160;8.980;2023-07-30T03:43:56;4.45;;;3.28;;
60979;SDS011;46851;49.160;8.980;2023-07-30T03:46:22;6.28;;;3.53;;
60979;SDS011;46851;49.160;8.980;2023-07-30T03:48:48;6.05;;;4.10;;
60979;SDS011;46851;49.160;8.980;2023-07-30T03:51:14;5.82;;;4.03;;
60979;SDS011;46851;49.160;8.980;2023-07-30T03:53:40;5.88;;;4.05;;
60979;SDS011;46851;49.160;8.980;2023-07-30T03:56:07;9.25;;;4.32;;
60979;SDS011;46851;49.160;8.980;2023-07-30T03:58:33;4.93;;;4.15;;
60979;SDS011;46851;49.160;8.980;2023-07-30T04:01:00;6.97;;;4.80;;
60979;SDS011;46851;49.160;8.980;2023-07-30T04:03:26;6.55;;;4.55;;
60979;SDS011;46851;49.160;8.980;2023-07-30T04:05:52;5.88;;;4.53;;
60979;SDS011;46851;49.160;8.980;2023-07-30T04:08:18;9.23;;;5.20;;
60979;SDS011;46851;49.160;8.980;2023-07-30T04:10:44;8.63;;;4.70;;
60979;SDS011;46851;49.160;8.980;2023-07-30T04:13:10;7.38;;;4.88;;
60979;SDS011;46851;49.160;8.980;2023-07-30T04:15:36;5.75;;;4.57;;
60979;SDS011;46851;49.160;8.980;2023-07-30T04:18:02;8.35;;;4.90;;
60979;SDS011;46851;49.160;8.980;2023-07-30T04:20:28;7.85;;;4.78;;
60979;SDS011;46851;49.160;8.980;2023-07-30T04:22:54;6.88;;;5.13;;
60979;SDS011;46851;49.160;8.980;2023-07-30T04:25:20;7.90;;;5.10;;
60979;SDS011;46851;49.160;8.980;2023-07-30T04:27:46;7.95;;;5.70;;
60979;SDS011;46851;49.160;8.980;2023-07-30T04:30:12;6.97;;;5.55;;
60979;SDS011;46851;49.160;8.980;2023-07-30T04:32:38;7.45;;;5.30;;
60979;SDS011;46851;49.160;8.980;2023-07-30T04:35:04;8.10;;;6.07;;
60979;SDS011;46851;49.160;8.980;2023-07-30T04:37:30;12.18;;;5.88;;
60979;SDS011;46851;49.160;8.980;2023-07-30T04:39:56;7.68;;;5.97;;
60979;SDS011;46851;49.160;8.980;2023-07-30T04:42:22;11.00;;;5.65;;
60979;SDS011;46851;49.160;8.980;2023-07-30T04:44:48;9.07;;;5.72;;
60979;SDS011;46851;49.160;8.980;2023-07-30T04:47:14;12.20;;;5.38;;
60979;SDS011;46851;49.160;8.980;2023-07-30T04:49:40;9.15;;;6.45;;
60979;SDS011;46851;49.160;8.980;2023-07-30T04:52:07;13.32;;;6.35;;
60979;SDS011;46851;49.160;8.980;2023-07-30T04:54:33;13.40;;;5.75;;
60979;SDS011;46851;49.160;8.980;2023-07-30T04:57:01;8.80;;;5.55;;
60979;SDS011;46851;49.160;8.980;2023-07-30T04:59:27;7.43;;;5.50;;
60979;SDS011;46851;49.160;8.980;2023-07-30T05:01:53;9.10;;;5.32;;
60979;SDS011;46851;49.160;8.980;2023-07-30T05:04:19;9.60;;;6.25;;
60979;SDS011;46851;49.160;8.980;2023-07-30T05:06:45;8.30;;;5.18;;
60979;SDS011;46851;49.160;8.980;2023-07-30T05:09:11;8.95;;;5.78;;
60979;SDS011;46851;49.160;8.980;2023-07-30T05:11:38;6.95;;;5.22;;
60979;SDS011;46851;49.160;8.980;2023-07-30T05:14:04;8.27;;;5.18;;
60979;SDS011;46851;49.160;8.980;2023-07-30T05:16:30;8.07;;;5.20;;
60979;SDS011;46851;49.160;8.980;2023-07-30T05:18:56;10.18;;;5.90;;
60979;SDS011;46851;49.160;8.980;2023-07-30T05:21:22;7.78;;;5.97;;
60979;SDS011;46851;49.160;8.980;2023-07-30T05:23:48;7.70;;;5.53;;
60979;SDS011;46851;49.160;8.980;2023-07-30T05:26:14;10.18;;;5.72;;
60979;SDS011;46851;49.160;8.980;2023-07-30T05:28:40;8.70;;;6.00;;
60979;SDS011;46851;49.160;8.980;2023-07-30T05:31:06;10.63;;;5.75;;
60979;SDS011;46851;49.160;8.980;2023-07-30T05:33:32;10.55;;;5.90;;
60979;SDS011;46851;49.160;8.980;2023-07-30T05:35:58;7.03;;;4.85;;
60979;SDS011;46851;49.160;8.980;2023-07-30T05:38:24;10.38;;;5.30;;
60979;SDS011;46851;49.160;8.980;2023-07-30T05:40:50;5.28;;;3.63;;
60979;SDS011;46851;49.160;8.980;2023-07-30T05:43:16;3.72;;;3.20;;
60979;SDS011;46851;49.160;8.980;2023-07-30T05:45:42;4.18;;;2.83;;
60979;SDS011;46851;49.160;8.980;2023-07-30T05:48:08;3.85;;;2.50;;
60979;SDS011;46851;49.160;8.980;2023-07-30T05:50:35;3.13;;;2.80;;
60979;SDS011;46851;49.160;8.980;2023-07-30T05:53:01;6.22;;;2.50;;
60979;SDS011;46851;49.160;8.980;2023-07-30T05:55:27;3.75;;;2.42;;
60979;SDS011;46851;49.160;8.980;2023-07-30T05:57:53;2.65;;;2.35;;
60979;SDS011;46851;49.160;8.980;2023-07-30T06:00:20;4.60;;;2.30;;
60979;SDS011;46851;49.160;8.980;2023-07-30T06:02:46;2.58;;;2.28;;
60979;SDS011;46851;49.160;8.980;2023-07-30T06:05:12;2.42;;;2.22;;
60979;SDS011;46851;49.160;8.980;2023-07-30T06:07:38;1.77;;;1.60;;
60979;SDS011;46851;49.160;8.980;2023-07-30T06:10:04;3.05;;;1.98;;
60979;SDS011;46851;49.160;8.980;2023-07-30T06:12:30;3.63;;;2.10;;
60979;SDS011;46851;49.160;8.980;2023-07-30T06:14:56;1.98;;;1.70;;
60979;SDS011;46851;49.160;8.980;2023-07-30T06:17:22;3.88;;;2.08;;
60979;SDS011;46851;49.160;8.980;2023-07-30T06:19:48;2.88;;;2.25;;
60979;SDS011;46851;49.160;8.980;2023-07-30T06:22:14;3.50;;;1.80;;
60979;SDS011;46851;49.160;8.980;2023-07-30T06:24:40;2.38;;;1.88;;
60979;SDS011;46851;49.160;8.980;2023-07-30T06:27:06;3.38;;;1.98;;
60979;SDS011;46851;49.160;8.980;2023-07-30T06:29:34;2.47;;;1.90;;
60979;SDS011;46851;49.160;8.980;2023-07-30T06:32:00;2.47;;;1.63;;
60979;SDS011;46851;49.160;8.980;2023-07-30T06:34:26;4.43;;;1.88;;
60979;SDS011;46851;49.160;8.980;2023-07-30T06:36:52;2.10;;;1.90;;
60979;SDS011;46851;49.160;8.980;2023-07-30T06:39:18;2.70;;;1.73;;
60979;SDS011;46851;49.160;8.980;2023-07-30T06:41:44;2.00;;;1.60;;
60979;SDS011;46851;49.160;8.980;2023-07-30T06:44:10;2.20;;;1.60;;
60979;SDS011;46851;49.160;8.980;2023-07-30T06:46:36;1.88;;;1.40;;
60979;SDS011;46851;49.160;8.980;2023-07-30T06:49:02;3.53;;;1.65;;
60979;SDS011;46851;49.160;8.980;2023-07-30T06:51:28;2.65;;;1.80;;
60979;SDS011;46851;49.160;8.980;2023-07-30T06:53:55;2.63;;;1.50;;
60979;SDS011;46851;49.160;8.980;2023-07-30T06:56:21;2.67;;;1.35;;
60979;SDS011;46851;49.160;8.980;2023-07-30T06:58:47;2.70;;;1.50;;
60979;SDS011;46851;49.160;8.980;2023-07-30T07:01:13;3.50;;;1.60;;
60979;SDS011;46851;49.160;8.980;2023-07-30T07:03:39;2.45;;;1.60;;
60979;SDS011;46851;49.160;8.980;2023-07-30T07:06:05;3.60;;;1.52;;
60979;SDS011;46851;49.160;8.980;2023-07-30T07:08:31;2.30;;;1.58;;
60979;SDS011;46851;49.160;8.980;2023-07-30T07:10:57;4.53;;;1.60;;
60979;SDS011;46851;49.160;8.980;2023-07-30T07:13:23;4.43;;;2.10;;
60979;SDS011;46851;49.160;8.980;2023-07-30T07:15:49;2.22;;;2.03;;
60979;SDS011;46851;49.160;8.980;2023-07-30T07:18:15;3.08;;;2.15;;
60979;SDS011;46851;49.160;8.980;2023-07-30T07:20:41;5.38;;;2.30;;
60979;SDS011;46851;49.160;8.980;2023-07-30T07:23:07;2.60;;;1.83;;
60979;SDS011;46851;49.160;8.980;2023-07-30T07:25:33;4.40;;;2.28;;
60979;SDS011;46851;49.160;8.980;2023-07-30T07:27:59;3.50;;;2.33;;
60979;SDS011;46851;49.160;8.980;2023-07-30T07:30:25;4.55;;;2.25;;
60979;SDS011;46851;49.160;8.980;2023-07-30T07:32:52;5.80;;;2.08;;
60979;SDS011;46851;49.160;8.980;2023-07-30T07:35:19;5.25;;;2.33;;
60979;SDS011;46851;49.160;8.980;2023-07-30T07:37:45;2.50;;;2.05;;
60979;SDS011;46851;49.160;8.980;2023-07-30T07:40:11;4.97;;;2.88;;
60979;SDS011;46851;49.160;8.980;2023-07-30T07:42:38;4.75;;;1.90;;
60979;SDS011;46851;49.160;8.980;2023-07-30T07:45:05;5.93;;;3.03;;
60979;SDS011;46851;49.160;8.980;2023-07-30T07:47:31;2.17;;;1.50;;
60979;SDS011;46851;49.160;8.980;2023-07-30T07:49:57;2.30;;;1.55;;
60979;SDS011;46851;49.160;8.980;2023-07-30T07:52:23;3.08;;;1.73;;
60979;SDS011;46851;49.160;8.980;2023-07-30T07:54:49;3.08;;;1.70;;
60979;SDS011;46851;49.160;8.980;2023-07-30T07:57:15;2.72;;;1.77;;
60979;SDS011;46851;49.160;8.980;2023-07-30T07:59:41;3.35;;;1.80;;
60979;SDS011;46851;49.160;8.980;2023-07-30T08:02:10;2.15;;;1.95;;
60979;SDS011;46851;49.160;8.980;2023-07-30T08:04:36;2.53;;;1.92;;
60979;SDS011;46851;49.160;8.980;2023-07-30T08:07:02;10.20;;;5.22;;
60979;SDS011;46851;49.160;8.980;2023-07-30T08:09:29;3.33;;;2.50;;
60979;SDS011;46851;49.160;8.980;2023-07-30T08:11:55;2.58;;;2.20;;
60979;SDS011;46851;49.160;8.980;2023-07-30T08:14:21;4.28;;;2.60;;
60979;SDS011;46851;49.160;8.980;2023-07-30T08:16:47;3.72;;;2.40;;
60979;SDS011;46851;49.160;8.980;2023-07-30T08:19:13;3.17;;;2.40;;
60979;SDS011;46851;49.160;8.980;2023-07-30T08:21:39;2.75;;;2.15;;
60979;SDS011;46851;49.160;8.980;2023-07-30T08:24:05;2.97;;;2.30;;
60979;SDS011;46851;49.160;8.980;2023-07-30T08:26:31;2.75;;;2.25;;
60979;SDS011;46851;49.160;8.980;2023-07-30T08:28:57;4.70;;;2.47;;
60979;SDS011;46851;49.160;8.980;2023-07-30T08:31:23;2.30;;;1.98;;
60979;SDS011;46851;49.160;8.980;2023-07-30T08:33:49;3.00;;;2.20;;
60979;SDS011;46851;49.160;8.980;2023-07-30T08:36:15;8.73;;;2.70;;
60979;SDS011;46851;49.160;8.980;2023-07-30T08:38:41;5.70;;;2.50;;
60979;SDS011;46851;49.160;8.980;2023-07-30T08:41:08;3.05;;;2.28;;
60979;SDS011;46851;49.160;8.980;2023-07-30T08:43:34;4.30;;;2.45;;
60979;SDS011;46851;49.160;8.980;2023-07-30T08:46:01;2.13;;;1.90;;
60979;SDS011;46851;49.160;8.980;2023-07-30T08:48:27;3.10;;;2.13;;
60979;SDS011;46851;49.160;8.980;2023-07-30T08:50:56;3.35;;;1.98;;
60979;SDS011;46851;49.160;8.980;2023-07-30T08:53:25;4.32;;;2.30;;
60979;SDS011;46851;49.160;8.980;2023-07-30T08:55:53;3.58;;;1.80;;
60979;SDS011;46851;49.160;8.980;2023-07-30T08:58:20;4.38;;;1.92;;
60979;SDS011;46851;49.160;8.980;2023-07-30T09:00:46;3.55;;;2.30;;
60979;SDS011;46851;49.160;8.980;2023-07-30T09:03:16;1.75;;;1.63;;
60979;SDS011;46851;49.160;8.980;2023-07-30T09:05:43;2.83;;;2.30;;
60979;SDS011;46851;49.160;8.980;2023-07-30T09:08:09;2.75;;;2.22;;
60979;SDS011;46851;49.160;8.980;2023-07-30T09:10:35;4.57;;;2.20;;
60979;SDS011;46851;49.160;8.980;2023-07-30T09:13:01;2.00;;;1.80;;
60979;SDS011;46851;49.160;8.980;2023-07-30T09:15:31;4.13;;;2.45;;
60979;SDS011;46851;49.160;8.980;2023-07-30T09:17:57;2.20;;;1.75;;
60979;SDS011;46851;49.160;8.980;2023-07-30T09:20:23;2.55;;;1.70;;
60979;SDS011;46851;49.160;8.980;2023-07-30T09:22:49;3.80;;;2.03;;
60979;SDS011;46851;49.160;8.980;2023-07-30T09:25:18;3.25;;;1.77;;
60979;SDS011;46851;49.160;8.980;2023-07-30T09:27:47;3.95;;;1.85;;
60979;SDS011;46851;49.160;8.980;2023-07-30T09:30:14;2.65;;;1.90;;
60979;SDS011;46851;49.160;8.980;2023-07-30T09:32:40;2.92;;;1.60;;
60979;SDS011;46851;49.160;8.980;2023-07-30T09:35:10;3.90;;;1.95;;
60979;SDS011;46851;49.160;8.980;2023-07-30T09:37:37;2.55;;;1.70;;
60979;SDS011;46851;49.160;8.980;2023-07-30T09:40:04;4.05;;;1.63;;
60979;SDS011;46851;49.160;8.980;2023-07-30T09:42:30;3.50;;;1.63;;
60979;SDS011;46851;49.160;8.980;2023-07-30T09:47:26;3.13;;;1.80;;
60979;SDS011;46851;49.160;8.980;2023-07-30T09:49:53;4.55;;;1.77;;
60979;SDS011;46851;49.160;8.980;2023-07-30T09:52:20;5.30;;;1.75;;
60979;SDS011;46851;49.160;8.980;2023-07-30T09:54:46;4.10;;;1.80;;
60979;SDS011;46851;49.160;8.980;2023-07-30T09:57:14;4.68;;;2.47;;
60979;SDS011;46851;49.160;8.980;2023-07-30T09:59:40;5.78;;;1.80;;
60979;SDS011;46851;49.160;8.980;2023-07-30T10:02:07;2.67;;;1.85;;
60979;SDS011;46851;49.160;8.980;2023-07-30T10:04:34;3.95;;;1.70;;
60979;SDS011;46851;49.160;8.980;2023-07-30T10:07:02;5.57;;;1.80;;
60979;SDS011;46851;49.160;8.980;2023-07-30T10:09:30;3.10;;;1.60;;
60979;SDS011;46851;49.160;8.980;2023-07-30T10:11:56;2.60;;;1.75;;
60979;SDS011;46851;49.160;8.980;2023-07-30T10:14:23;5.90;;;1.60;;
60979;SDS011;46851;49.160;8.980;2023-07-30T10:16:50;3.05;;;2.00;;
60979;SDS011;46851;49.160;8.980;2023-07-30T10:19:17;3.72;;;1.80;;
60979;SDS011;46851;49.160;8.980;2023-07-30T10:21:43;5.65;;;2.00;;
60979;SDS011;46851;49.160;8.980;2023-07-30T10:24:09;7.10;;;2.05;;
60979;SDS011;46851;49.160;8.980;2023-07-30T10:26:35;3.42;;;1.80;;
60979;SDS011;46851;49.160;8.980;2023-07-30T10:31:40;3.90;;;1.63;;
60979;SDS011;46851;49.160;8.980;2023-07-30T10:36:35;5.40;;;2.22;;
60979;SDS011;46851;49.160;8.980;2023-07-30T10:39:47;3.78;;;2.10;;
60979;SDS011;46851;49.160;8.980;2023-07-30T10:41:50;4.13;;;2.10;;
60979;SDS011;46851;49.160;8.980;2023-07-30T10:46:45;5.80;;;1.77;;
60979;SDS011;46851;49.160;8.980;2023-07-30T10:49:11;2.53;;;1.48;;
60979;SDS011;46851;49.160;8.980;2023-07-30T10:51:37;5.68;;;1.80;;
60979;SDS011;46851;49.160;8.980;2023-07-30T10:54:06;2.08;;;1.70;;
60979;SDS011;46851;49.160;8.980;2023-07-30T10:56:35;2.17;;;1.35;;
60979;SDS011;46851;49.160;8.980;2023-07-30T10:59:03;3.65;;;1.88;;
60979;SDS011;46851;49.160;8.980;2023-07-30T11:01:39;3.30;;;1.70;;
60979;SDS011;46851;49.160;8.980;2023-07-30T11:04:06;4.82;;;1.70;;
60979;SDS011;46851;49.160;8.980;2023-07-30T11:06:32;2.97;;;1.88;;
60979;SDS011;46851;49.160;8.980;2023-07-30T11:08:58;3.17;;;1.80;;
60979;SDS011;46851;49.160;8.980;2023-07-30T11:11:24;3.35;;;1.58;;
60979;SDS011;46851;49.160;8.980;2023-07-30T11:13:50;4.05;;;2.05;;
60979;SDS011;46851;49.160;8.980;2023-07-30T11:16:16;3.67;;;1.63;;
60979;SDS011;46851;49.160;8.980;2023-07-30T11:18:43;3.55;;;1.55;;
60979;SDS011;46851;49.160;8.980;2023-07-30T11:21:10;2.30;;;1.30;;
60979;SDS011;46851;49.160;8.980;2023-07-30T11:23:36;3.30;;;1.20;;
60979;SDS011;46851;49.160;8.980;2023-07-30T11:26:03;2.30;;;1.20;;
60979;SDS011;46851;49.160;8.980;2023-07-30T11:28:33;1.98;;;1.35;;
60979;SDS011;46851;49.160;8.980;2023-07-30T11:31:01;4.13;;;1.60;;
60979;SDS011;46851;49.160;8.980;2023-07-30T11:33:27;1.73;;;1.20;;
60979;SDS011;46851;49.160;8.980;2023-07-30T11:35:54;2.03;;;1.33;;
60979;SDS011;46851;49.160;8.980;2023-07-30T11:38:24;4.50;;;1.25;;
60979;SDS011;46851;49.160;8.980;2023-07-30T11:43:17;1.77;;;1.27;;
60979;SDS011;46851;49.160;8.980;2023-07-30T11:45:43;3.10;;;1.40;;
60979;SDS011;46851;49.160;8.980;2023-07-30T11:48:10;3.97;;;1.38;;
60979;SDS011;46851;49.160;8.980;2023-07-30T11:50:46;3.10;;;1.10;;
60979;SDS011;46851;49.160;8.980;2023-07-30T11:53:12;2.25;;;1.10;;
60979;SDS011;46851;49.160;8.980;2023-07-30T11:55:38;4.70;;;0.90;;
60979;SDS011;46851;49.160;8.980;2023-07-30T11:58:07;2.55;;;1.15;;
60979;SDS011;46851;49.160;8.980;2023-07-30T12:00:38;1.75;;;0.88;;
60979;SDS011;46851;49.160;8.980;2023-07-30T12:03:05;2.55;;;1.00;;
60979;SDS011;46851;49.160;8.980;2023-07-30T12:05:35;2.70;;;0.90;;
60979;SDS011;46851;49.160;8.980;2023-07-30T12:08:02;3.88;;;1.08;;
60979;SDS011;46851;49.160;8.980;2023-07-30T12:10:40;3.08;;;0.90;;
60979;SDS011;46851;49.160;8.980;2023-07-30T12:13:18;2.33;;;1.00;;
60979;SDS011;46851;49.160;8.980;2023-07-30T12:15:53;3.55;;;0.98;;
60979;SDS011;46851;49.160;8.980;2023-07-30T12:18:19;4.15;;;0.90;;
60979;SDS011;46851;49.160;8.980;2023-07-30T12:20:46;2.55;;;0.93;;
60979;SDS011;46851;49.160;8.980;2023-07-30T12:23:12;3.72;;;1.08;;
60979;SDS011;46851;49.160;8.980;2023-07-30T12:25:38;0.90;;;0.70;;
60979;SDS011;46851;49.160;8.980;2023-07-30T12:28:04;3.97;;;0.90;;
60979;SDS011;46851;49.160;8.980;2023-07-30T12:30:30;2.15;;;0.90;;
60979;SDS011;46851;49.160;8.980;2023-07-30T12:32:56;1.55;;;0.95;;
60979;SDS011;46851;49.160;8.980;2023-07-30T12:35:23;2.47;;;0.90;;
60979;SDS011;46851;49.160;8.980;2023-07-30T12:37:49;4.72;;;0.90;;
60979;SDS011;46851;49.160;8.980;2023-07-30T12:40:16;4.55;;;1.20;;
60979;SDS011;46851;49.160;8.980;2023-07-30T12:42:42;6.35;;;1.05;;
60979;SDS011;46851;49.160;8.980;2023-07-30T12:45:08;11.27;;;1.13;;
60979;SDS011;46851;49.160;8.980;2023-07-30T12:47:34;2.85;;;0.98;;
60979;SDS011;46851;49.160;8.980;2023-07-30T12:50:01;4.35;;;1.00;;
60979;SDS011;46851;49.160;8.980;2023-07-30T12:52:28;2.45;;;0.90;;
60979;SDS011;46851;49.160;8.980;2023-07-30T12:54:54;3.15;;;1.02;;
60979;SDS011;46851;49.160;8.980;2023-07-30T12:57:20;3.63;;;1.10;;
60979;SDS011;46851;49.160;8.980;2023-07-30T12:59:46;2.28;;;0.90;;
60979;SDS011;46851;49.160;8.980;2023-07-30T13:02:12;2.80;;;1.15;;
60979;SDS011;46851;49.160;8.980;2023-07-30T13:04:38;2.20;;;1.10;;
60979;SDS011;46851;49.160;8.980;2023-07-30T13:07:04;2.47;;;1.17;;
60979;SDS011;46851;49.160;8.980;2023-07-30T13:09:30;3.83;;;1.13;;
60979;SDS011;46851;49.160;8.980;2023-07-30T13:11:56;4.75;;;1.23;;
60979;SDS011;46851;49.160;8.980;2023-07-30T13:14:22;4.00;;;1.10;;
60979;SDS011;46851;49.160;8.980;2023-07-30T13:16:48;3.53;;;1.20;;
60979;SDS011;46851;49.160;8.980;2023-07-30T13:19:14;5.50;;;1.17;;
60979;SDS011;46851;49.160;8.980;2023-07-30T13:21:40;3.85;;;1.30;;
60979;SDS011;46851;49.160;8.980;2023-07-30T13:24:06;2.53;;;1.00;;
60979;SDS011;46851;49.160;8.980;2023-07-30T13:26:32;3.08;;;1.17;;
60979;SDS011;46851;49.160;8.980;2023-07-30T13:28:58;2.65;;;1.10;;
60979;SDS011;46851;49.160;8.980;2023-07-30T13:31:24;6.53;;;1.23;;
60979;SDS011;46851;49.160;8.980;2023-07-30T13:33:50;3.78;;;1.75;;
60979;SDS011;46851;49.160;8.980;2023-07-30T13:36:17;2.47;;;1.30;;
60979;SDS011;46851;49.160;8.980;2023-07-30T13:38:43;4.07;;;1.30;;
60979;SDS011;46851;49.160;8.980;2023-07-30T13:41:09;5.30;;;1.20;;
60979;SDS011;46851;49.160;8.980;2023-07-30T13:43:35;2.25;;;1.10;;
60979;SDS011;46851;49.160;8.980;2023-07-30T13:46:01;2.28;;;0.90;;
60979;SDS011;46851;49.160;8.980;2023-07-30T13:48:27;2.67;;;1.38;;
60979;SDS011;46851;49.160;8.980;2023-07-30T13:50:53;4.32;;;1.52;;
60979;SDS011;46851;49.160;8.980;2023-07-30T13:53:19;3.72;;;1.17;;
60979;SDS011;46851;49.160;8.980;2023-07-30T13:55:45;2.10;;;1.05;;
60979;SDS011;46851;49.160;8.980;2023-07-30T13:58:11;4.60;;;1.48;;
60979;SDS011;46851;49.160;8.980;2023-07-30T14:00:40;1.95;;;1.08;;
60979;SDS011;46851;49.160;8.980;2023-07-30T14:03:06;4.35;;;1.10;;
60979;SDS011;46851;49.160;8.980;2023-07-30T14:05:32;4.38;;;1.30;;
60979;SDS011;46851;49.160;8.980;2023-07-30T14:07:58;3.05;;;1.20;;
60979;SDS011;46851;49.160;8.980;2023-07-30T14:10:24;3.15;;;1.20;;
60979;SDS011;46851;49.160;8.980;2023-07-30T14:12:51;2.63;;;1.30;;
60979;SDS011;46851;49.160;8.980;2023-07-30T14:15:17;5.47;;;1.20;;
60979;SDS011;46851;49.160;8.980;2023-07-30T14:17:43;4.00;;;1.20;;
60979;SDS011;46851;49.160;8.980;2023-07-30T14:20:09;4.78;;;1.13;;
60979;SDS011;46851;49.160;8.980;2023-07-30T14:22:35;2.10;;;1.00;;
60979;SDS011;46851;49.160;8.980;2023-07-30T14:25:02;2.92;;;1.20;;
60979;SDS011;46851;49.160;8.980;2023-07-30T14:27:28;7.07;;;1.15;;
60979;SDS011;46851;49.160;8.980;2023-07-30T14:29:54;3.33;;;1.10;;
60979;SDS011;46851;49.160;8.980;2023-07-30T14:32:20;2.53;;;1.13;;
60979;SDS011;46851;49.160;8.980;2023-07-30T14:34:46;2.35;;;0.95;;
60979;SDS011;46851;49.160;8.980;2023-07-30T14:37:13;1.48;;;0.85;;
60979;SDS011;46851;49.160;8.980;2023-07-30T14:39:39;2.42;;;1.10;;
60979;SDS011;46851;49.160;8.980;2023-07-30T14:42:06;3.55;;;1.20;;
60979;SDS011;46851;49.160;8.980;2023-07-30T14:44:32;6.50;;;1.30;;
60979;SDS011;46851;49.160;8.980;2023-07-30T14:46:58;4.38;;;1.00;;
60979;SDS011;46851;49.160;8.980;2023-07-30T14:49:25;2.15;;;0.93;;
60979;SDS011;46851;49.160;8.980;2023-07-30T14:51:51;6.45;;;1.23;;
60979;SDS011;46851;49.160;8.980;2023-07-30T14:54:17;2.65;;;1.25;;
60979;SDS011;46851;49.160;8.980;2023-07-30T14:56:43;2.45;;;1.40;;